sensor_id;sensor_type;location;lat;lon;timestamp;P1;durP1;ratioP1;P2;durP2;ratioP2
62010;SDS011;47967;51.756;10.174;2022-08-19T00:02:03;16.38;;;11.02;;
62010;SDS011;47967;51.756;10.174;2022-08-19T00:06:07;17.05;;;10.95;;
62010;SDS011;47967;51.756;10.174;2022-08-19T00:10:11;14.95;;;10.85;;
62010;SDS011;47967;51.756;10.174;2022-08-19T00:14:16;12.75;;;8.60;;
62010;SDS011;47967;51.756;10.174;2022-08-19T00:18:19;16.17;;;9.90;;
62010;SDS011;47967;51.756;10.174;2022-08-19T00:22:23;20.70;;;10.63;;
62010;SDS011;47967;51.756;10.174;2022-08-19T00:26:28;14.93;;;9.50;;
62010;SDS011;47967;51.756;10.174;2022-08-19T00:30:30;13.90;;;8.63;;
62010;SDS011;47967;51.756;10.174;2022-08-19T00:34:33;17.30;;;9.63;;
62010;SDS011;47967;51.756;10.174;2022-08-19T00:38:38;12.57;;;8.90;;
62010;SDS011;47967;51.756;10.174;2022-08-19T00:42:44;11.13;;;8.10;;
62010;SDS011;47967;51.756;10.174;2022-08-19T00:50:58;12.93;;;8.32;;
62010;SDS011;47967;51.756;10.174;2022-08-19T00:55:03;13.85;;;8.15;;
62010;SDS011;47967;51.756;10.174;2022-08-19T00:59:13;16.25;;;8.68;;
62010;SDS011;47967;51.756;10.174;2022-08-19T01:03:37;15.80;;;8.68;;
62010;SDS011;47967;51.756;10.174;2022-08-19T01:07:59;15.82;;;8.23;;
62010;SDS011;47967;51.756;10.174;2022-08-19T01:12:05;14.25;;;8.30;;
62010;SDS011;47967;51.756;10.174;2022-08-19T01:16:09;18.10;;;9.35;;
62010;SDS011;47967;51.756;10.174;2022-08-19T01:20:14;13.63;;;9.50;;
62010;SDS011;47967;51.756;10.174;2022-08-19T01:24:21;14.32;;;8.88;;
62010;SDS011;47967;51.756;10.174;2022-08-19T01:28:25;13.85;;;9.00;;
62010;SDS011;47967;51.756;10.174;2022-08-19T01:32:40;15.10;;;8.60;;
62010;SDS011;47967;51.756;10.174;2022-08-19T01:36:45;13.68;;;8.68;;
62010;SDS011;47967;51.756;10.174;2022-08-19T01:40:51;15.40;;;9.40;;
62010;SDS011;47967;51.756;10.174;2022-08-19T01:44:54;13.30;;;8.82;;
62010;SDS011;47967;51.756;10.174;2022-08-19T01:48:57;17.80;;;8.90;;
62010;SDS011;47967;51.756;10.174;2022-08-19T01:53:01;13.50;;;9.10;;
62010;SDS011;47967;51.756;10.174;2022-08-19T01:57:10;14.95;;;9.35;;
62010;SDS011;47967;51.756;10.174;2022-08-19T02:01:15;15.30;;;9.40;;
62010;SDS011;47967;51.756;10.174;2022-08-19T02:09:22;12.88;;;8.88;;
62010;SDS011;47967;51.756;10.174;2022-08-19T02:13:26;15.03;;;9.67;;
62010;SDS011;47967;51.756;10.174;2022-08-19T02:17:29;16.63;;;8.93;;
62010;SDS011;47967;51.756;10.174;2022-08-19T02:21:33;15.98;;;10.68;;
62010;SDS011;47967;51.756;10.174;2022-08-19T02:25:36;19.20;;;10.60;;
62010;SDS011;47967;51.756;10.174;2022-08-19T02:29:40;14.20;;;10.20;;
62010;SDS011;47967;51.756;10.174;2022-08-19T02:33:43;19.73;;;11.18;;
62010;SDS011;47967;51.756;10.174;2022-08-19T02:37:46;15.60;;;10.18;;
62010;SDS011;47967;51.756;10.174;2022-08-19T02:42:07;17.52;;;10.98;;
62010;SDS011;47967;51.756;10.174;2022-08-19T02:46:17;16.70;;;10.45;;
62010;SDS011;47967;51.756;10.174;2022-08-19T02:50:22;18.55;;;11.27;;
62010;SDS011;47967;51.756;10.174;2022-08-19T02:54:24;16.83;;;10.63;;
62010;SDS011;47967;51.756;10.174;2022-08-19T02:58:27;17.38;;;11.85;;
62010;SDS011;47967;51.756;10.174;2022-08-19T03:02:31;18.55;;;13.10;;
62010;SDS011;47967;51.756;10.174;2022-08-19T03:06:35;18.45;;;12.35;;
62010;SDS011;47967;51.756;10.174;2022-08-19T03:10:48;18.00;;;12.35;;
62010;SDS011;47967;51.756;10.174;2022-08-19T03:14:50;20.95;;;12.52;;
62010;SDS011;47967;51.756;10.174;2022-08-19T03:18:56;17.25;;;11.35;;
62010;SDS011;47967;51.756;10.174;2022-08-19T03:23:01;17.63;;;11.85;;
62010;SDS011;47967;51.756;10.174;2022-08-19T03:27:03;18.33;;;11.80;;
62010;SDS011;47967;51.756;10.174;2022-08-19T03:31:07;18.95;;;11.80;;
62010;SDS011;47967;51.756;10.174;2022-08-19T03:35:34;15.40;;;10.75;;
62010;SDS011;47967;51.756;10.174;2022-08-19T03:39:38;15.57;;;10.73;;
62010;SDS011;47967;51.756;10.174;2022-08-19T03:43:42;16.27;;;11.07;;
62010;SDS011;47967;51.756;10.174;2022-08-19T03:47:47;15.65;;;10.35;;
62010;SDS011;47967;51.756;10.174;2022-08-19T03:51:51;18.38;;;11.48;;
62010;SDS011;47967;51.756;10.174;2022-08-19T03:55:54;16.02;;;10.93;;
62010;SDS011;47967;51.756;10.174;2022-08-19T03:59:57;16.92;;;10.88;;
62010;SDS011;47967;51.756;10.174;2022-08-19T04:04:14;16.15;;;9.18;;
62010;SDS011;47967;51.756;10.174;2022-08-19T04:08:17;13.60;;;8.83;;
62010;SDS011;47967;51.756;10.174;2022-08-19T04:12:22;13.07;;;8.68;;
62010;SDS011;47967;51.756;10.174;2022-08-19T04:16:25;16.90;;;9.27;;
62010;SDS011;47967;51.756;10.174;2022-08-19T04:20:39;14.48;;;9.07;;
62010;SDS011;47967;51.756;10.174;2022-08-19T04:24:44;16.88;;;9.20;;
62010;SDS011;47967;51.756;10.174;2022-08-19T04:28:47;14.05;;;9.52;;
62010;SDS011;47967;51.756;10.174;2022-08-19T04:32:50;15.38;;;10.18;;
62010;SDS011;47967;51.756;10.174;2022-08-19T04:36:53;15.35;;;10.63;;
62010;SDS011;47967;51.756;10.174;2022-08-19T04:40:59;15.13;;;9.70;;
62010;SDS011;47967;51.756;10.174;2022-08-19T04:45:19;15.10;;;9.20;;
62010;SDS011;47967;51.756;10.174;2022-08-19T04:49:23;15.40;;;9.45;;
62010;SDS011;47967;51.756;10.174;2022-08-19T04:57:39;14.82;;;8.77;;
62010;SDS011;47967;51.756;10.174;2022-08-19T05:01:42;13.57;;;9.07;;
62010;SDS011;47967;51.756;10.174;2022-08-19T05:05:46;16.70;;;8.48;;
62010;SDS011;47967;51.756;10.174;2022-08-19T05:09:49;11.82;;;7.90;;
62010;SDS011;47967;51.756;10.174;2022-08-19T05:14:00;13.73;;;7.78;;
62010;SDS011;47967;51.756;10.174;2022-08-19T05:18:03;17.88;;;6.45;;
62010;SDS011;47967;51.756;10.174;2022-08-19T05:22:23;9.88;;;6.00;;
62010;SDS011;47967;51.756;10.174;2022-08-19T05:26:36;9.10;;;5.68;;
62010;SDS011;47967;51.756;10.174;2022-08-19T05:30:41;11.70;;;5.65;;
62010;SDS011;47967;51.756;10.174;2022-08-19T05:34:47;10.75;;;6.40;;
62010;SDS011;47967;51.756;10.174;2022-08-19T05:38:50;10.55;;;6.13;;
62010;SDS011;47967;51.756;10.174;2022-08-19T05:42:54;11.15;;;6.00;;
62010;SDS011;47967;51.756;10.174;2022-08-19T05:46:58;11.13;;;6.25;;
62010;SDS011;47967;51.756;10.174;2022-08-19T05:51:03;11.65;;;6.38;;
62010;SDS011;47967;51.756;10.174;2022-08-19T05:55:07;10.98;;;6.97;;
62010;SDS011;47967;51.756;10.174;2022-08-19T06:03:14;12.15;;;6.63;;
62010;SDS011;47967;51.756;10.174;2022-08-19T06:07:16;13.13;;;7.65;;
62010;SDS011;47967;51.756;10.174;2022-08-19T06:11:21;11.48;;;8.10;;
62010;SDS011;47967;51.756;10.174;2022-08-19T06:15:25;13.27;;;7.45;;
62010;SDS011;47967;51.756;10.174;2022-08-19T06:19:30;12.68;;;7.57;;
62010;SDS011;47967;51.756;10.174;2022-08-19T06:23:33;11.18;;;7.05;;
62010;SDS011;47967;51.756;10.174;2022-08-19T06:27:36;11.75;;;6.68;;
62010;SDS011;47967;51.756;10.174;2022-08-19T06:31:59;9.20;;;5.78;;
62010;SDS011;47967;51.756;10.174;2022-08-19T06:36:06;10.05;;;5.47;;
62010;SDS011;47967;51.756;10.174;2022-08-19T06:40:10;9.63;;;6.10;;
62010;SDS011;47967;51.756;10.174;2022-08-19T06:44:14;11.80;;;6.40;;
62010;SDS011;47967;51.756;10.174;2022-08-19T06:48:17;12.38;;;6.30;;
62010;SDS011;47967;51.756;10.174;2022-08-19T06:52:21;8.25;;;5.50;;
62010;SDS011;47967;51.756;10.174;2022-08-19T06:56:26;9.15;;;5.60;;
62010;SDS011;47967;51.756;10.174;2022-08-19T07:00:32;10.65;;;5.45;;
62010;SDS011;47967;51.756;10.174;2022-08-19T07:04:35;9.90;;;5.80;;
62010;SDS011;47967;51.756;10.174;2022-08-19T07:08:45;10.35;;;5.18;;
62010;SDS011;47967;51.756;10.174;2022-08-19T07:12:48;9.38;;;5.40;;
62010;SDS011;47967;51.756;10.174;2022-08-19T07:16:52;9.65;;;5.80;;
62010;SDS011;47967;51.756;10.174;2022-08-19T07:21:01;8.73;;;5.10;;
62010;SDS011;47967;51.756;10.174;2022-08-19T07:25:11;9.95;;;5.32;;
62010;SDS011;47967;51.756;10.174;2022-08-19T07:29:14;9.55;;;4.20;;
62010;SDS011;47967;51.756;10.174;2022-08-19T07:33:18;6.57;;;3.72;;
62010;SDS011;47967;51.756;10.174;2022-08-19T07:37:21;6.30;;;3.45;;
62010;SDS011;47967;51.756;10.174;2022-08-19T07:41:25;4.70;;;3.03;;
62010;SDS011;47967;51.756;10.174;2022-08-19T07:45:32;7.13;;;3.97;;
62010;SDS011;47967;51.756;10.174;2022-08-19T07:49:35;6.50;;;3.45;;
62010;SDS011;47967;51.756;10.174;2022-08-19T07:53:37;6.93;;;3.60;;
62010;SDS011;47967;51.756;10.174;2022-08-19T07:57:41;6.10;;;3.70;;
62010;SDS011;47967;51.756;10.174;2022-08-19T08:01:49;7.40;;;3.60;;
62010;SDS011;47967;51.756;10.174;2022-08-19T08:10:12;8.93;;;4.90;;
62010;SDS011;47967;51.756;10.174;2022-08-19T08:14:24;11.32;;;4.72;;
62010;SDS011;47967;51.756;10.174;2022-08-19T08:18:35;8.60;;;4.47;;
62010;SDS011;47967;51.756;10.174;2022-08-19T08:22:43;10.85;;;4.38;;
62010;SDS011;47967;51.756;10.174;2022-08-19T08:27:04;8.27;;;4.10;;
62010;SDS011;47967;51.756;10.174;2022-08-19T08:31:13;5.38;;;3.42;;
62010;SDS011;47967;51.756;10.174;2022-08-19T08:35:16;5.90;;;3.78;;
62010;SDS011;47967;51.756;10.174;2022-08-19T08:39:21;4.95;;;3.67;;
62010;SDS011;47967;51.756;10.174;2022-08-19T08:43:24;5.28;;;3.67;;
62010;SDS011;47967;51.756;10.174;2022-08-19T08:47:34;5.85;;;3.78;;
62010;SDS011;47967;51.756;10.174;2022-08-19T08:51:44;4.10;;;3.28;;
62010;SDS011;47967;51.756;10.174;2022-08-19T08:56:00;3.22;;;2.70;;
62010;SDS011;47967;51.756;10.174;2022-08-19T09:00:08;3.17;;;2.60;;
62010;SDS011;47967;51.756;10.174;2022-08-19T09:04:17;5.00;;;2.65;;
62010;SDS011;47967;51.756;10.174;2022-08-19T09:08:22;4.88;;;3.17;;
62010;SDS011;47967;51.756;10.174;2022-08-19T09:12:34;5.38;;;2.85;;
62010;SDS011;47967;51.756;10.174;2022-08-19T09:16:47;5.97;;;2.70;;
62010;SDS011;47967;51.756;10.174;2022-08-19T09:20:53;2.38;;;2.10;;
62010;SDS011;47967;51.756;10.174;2022-08-19T09:24:57;3.45;;;2.35;;
62010;SDS011;47967;51.756;10.174;2022-08-19T09:33:06;3.33;;;2.42;;
62010;SDS011;47967;51.756;10.174;2022-08-19T09:37:10;4.30;;;2.67;;
62010;SDS011;47967;51.756;10.174;2022-08-19T09:41:16;4.50;;;2.30;;
62010;SDS011;47967;51.756;10.174;2022-08-19T09:45:21;5.22;;;3.10;;
62010;SDS011;47967;51.756;10.174;2022-08-19T09:49:24;3.88;;;2.88;;
62010;SDS011;47967;51.756;10.174;2022-08-19T09:53:28;5.32;;;2.97;;
62010;SDS011;47967;51.756;10.174;2022-08-19T09:57:31;5.05;;;2.85;;
62010;SDS011;47967;51.756;10.174;2022-08-19T10:01:34;4.50;;;2.92;;
62010;SDS011;47967;51.756;10.174;2022-08-19T10:05:37;5.00;;;2.67;;
62010;SDS011;47967;51.756;10.174;2022-08-19T10:09:57;5.45;;;2.92;;
62010;SDS011;47967;51.756;10.174;2022-08-19T10:13:59;3.58;;;2.72;;
62010;SDS011;47967;51.756;10.174;2022-08-19T10:18:02;5.10;;;3.35;;
62010;SDS011;47967;51.756;10.174;2022-08-19T10:22:05;6.00;;;2.95;;
62010;SDS011;47967;51.756;10.174;2022-08-19T10:26:14;3.88;;;3.03;;
62010;SDS011;47967;51.756;10.174;2022-08-19T10:30:19;4.82;;;2.80;;
62010;SDS011;47967;51.756;10.174;2022-08-19T10:34:25;4.55;;;3.08;;
62010;SDS011;47967;51.756;10.174;2022-08-19T10:38:30;4.47;;;3.20;;
62010;SDS011;47967;51.756;10.174;2022-08-19T10:42:36;3.63;;;3.10;;
62010;SDS011;47967;51.756;10.174;2022-08-19T10:46:41;5.28;;;3.30;;
62010;SDS011;47967;51.756;10.174;2022-08-19T10:50:50;5.15;;;3.30;;
62010;SDS011;47967;51.756;10.174;2022-08-19T10:55:23;5.45;;;3.22;;
62010;SDS011;47967;51.756;10.174;2022-08-19T10:59:44;4.45;;;3.25;;
62010;SDS011;47967;51.756;10.174;2022-08-19T11:03:48;7.03;;;3.35;;
62010;SDS011;47967;51.756;10.174;2022-08-19T11:07:51;4.45;;;3.15;;
62010;SDS011;47967;51.756;10.174;2022-08-19T11:11:54;8.48;;;3.08;;
62010;SDS011;47967;51.756;10.174;2022-08-19T11:16:05;4.22;;;2.50;;
62010;SDS011;47967;51.756;10.174;2022-08-19T11:20:10;4.65;;;2.47;;
62010;SDS011;47967;51.756;10.174;2022-08-19T11:24:14;3.47;;;2.15;;
62010;SDS011;47967;51.756;10.174;2022-08-19T11:28:19;3.60;;;1.83;;
62010;SDS011;47967;51.756;10.174;2022-08-19T11:32:23;3.75;;;1.80;;
62010;SDS011;47967;51.756;10.174;2022-08-19T11:36:25;3.08;;;1.90;;
62010;SDS011;47967;51.756;10.174;2022-08-19T11:40:28;3.80;;;1.60;;
62010;SDS011;47967;51.756;10.174;2022-08-19T11:44:31;2.60;;;1.20;;
62010;SDS011;47967;51.756;10.174;2022-08-19T11:48:38;1.52;;;1.27;;
62010;SDS011;47967;51.756;10.174;2022-08-19T11:52:41;1.77;;;1.20;;
62010;SDS011;47967;51.756;10.174;2022-08-19T11:56:45;1.33;;;1.23;;
62010;SDS011;47967;51.756;10.174;2022-08-19T12:00:50;3.58;;;1.20;;
62010;SDS011;47967;51.756;10.174;2022-08-19T12:04:54;1.20;;;1.10;;
62010;SDS011;47967;51.756;10.174;2022-08-19T12:08:57;2.22;;;1.02;;
62010;SDS011;47967;51.756;10.174;2022-08-19T12:13:01;5.07;;;1.10;;
62010;SDS011;47967;51.756;10.174;2022-08-19T12:17:04;1.52;;;1.42;;
62010;SDS011;47967;51.756;10.174;2022-08-19T12:21:10;3.58;;;1.40;;
62010;SDS011;47967;51.756;10.174;2022-08-19T12:25:14;1.45;;;1.30;;
62010;SDS011;47967;51.756;10.174;2022-08-19T12:29:18;3.08;;;1.08;;
62010;SDS011;47967;51.756;10.174;2022-08-19T12:33:24;1.42;;;0.90;;
62010;SDS011;47967;51.756;10.174;2022-08-19T12:37:30;1.10;;;1.10;;
62010;SDS011;47967;51.756;10.174;2022-08-19T12:41:33;1.30;;;1.20;;
62010;SDS011;47967;51.756;10.174;2022-08-19T12:45:43;2.88;;;1.23;;
62010;SDS011;47967;51.756;10.174;2022-08-19T12:49:47;1.02;;;1.02;;
62010;SDS011;47967;51.756;10.174;2022-08-19T12:53:56;1.13;;;1.10;;
62010;SDS011;47967;51.756;10.174;2022-08-19T12:57:59;1.35;;;1.17;;
62010;SDS011;47967;51.756;10.174;2022-08-19T13:02:02;1.00;;;1.00;;
62010;SDS011;47967;51.756;10.174;2022-08-19T13:06:06;1.92;;;1.40;;
62010;SDS011;47967;51.756;10.174;2022-08-19T13:10:11;2.20;;;1.25;;
62010;SDS011;47967;51.756;10.174;2022-08-19T13:14:19;1.10;;;1.10;;
62010;SDS011;47967;51.756;10.174;2022-08-19T13:26:29;3.15;;;1.40;;
62010;SDS011;47967;51.756;10.174;2022-08-19T13:30:32;2.60;;;1.17;;
62010;SDS011;47967;51.756;10.174;2022-08-19T13:34:52;1.00;;;0.98;;
62010;SDS011;47967;51.756;10.174;2022-08-19T13:43:00;1.17;;;1.10;;
62010;SDS011;47967;51.756;10.174;2022-08-19T13:47:22;0.95;;;0.95;;
62010;SDS011;47967;51.756;10.174;2022-08-19T13:51:25;2.35;;;1.23;;
62010;SDS011;47967;51.756;10.174;2022-08-19T13:55:27;1.00;;;0.90;;
62010;SDS011;47967;51.756;10.174;2022-08-19T14:03:34;1.35;;;1.10;;
62010;SDS011;47967;51.756;10.174;2022-08-19T14:07:37;1.20;;;1.10;;
62010;SDS011;47967;51.756;10.174;2022-08-19T14:11:40;1.20;;;1.10;;
62010;SDS011;47967;51.756;10.174;2022-08-19T14:19:47;2.45;;;1.30;;
62010;SDS011;47967;51.756;10.174;2022-08-19T14:27:52;2.20;;;1.30;;
62010;SDS011;47967;51.756;10.174;2022-08-19T14:31:56;1.27;;;1.17;;
62010;SDS011;47967;51.756;10.174;2022-08-19T14:36:00;0.95;;;0.95;;
62010;SDS011;47967;51.756;10.174;2022-08-19T14:44:05;1.05;;;1.05;;
62010;SDS011;47967;51.756;10.174;2022-08-19T14:52:19;2.28;;;1.23;;
62010;SDS011;47967;51.756;10.174;2022-08-19T14:56:23;1.80;;;1.45;;
62010;SDS011;47967;51.756;10.174;2022-08-19T15:00:28;1.38;;;1.27;;
62010;SDS011;47967;51.756;10.174;2022-08-19T15:04:32;1.17;;;1.10;;
62010;SDS011;47967;51.756;10.174;2022-08-19T15:08:35;1.67;;;1.00;;
62010;SDS011;47967;51.756;10.174;2022-08-19T15:12:40;1.65;;;1.20;;
62010;SDS011;47967;51.756;10.174;2022-08-19T15:16:43;1.73;;;1.00;;
62010;SDS011;47967;51.756;10.174;2022-08-19T15:24:50;1.27;;;1.10;;
62010;SDS011;47967;51.756;10.174;2022-08-19T15:28:57;2.13;;;1.27;;
62010;SDS011;47967;51.756;10.174;2022-08-19T15:33:00;1.77;;;1.20;;
62010;SDS011;47967;51.756;10.174;2022-08-19T15:37:04;1.92;;;1.23;;
62010;SDS011;47967;51.756;10.174;2022-08-19T15:41:14;1.95;;;1.75;;
62010;SDS011;47967;51.756;10.174;2022-08-19T15:45:25;1.60;;;1.50;;
62010;SDS011;47967;51.756;10.174;2022-08-19T15:49:32;2.92;;;1.42;;
62010;SDS011;47967;51.756;10.174;2022-08-19T15:53:36;1.70;;;1.60;;
62010;SDS011;47967;51.756;10.174;2022-08-19T15:57:40;2.03;;;1.58;;
62010;SDS011;47967;51.756;10.174;2022-08-19T16:02:01;3.97;;;1.50;;
62010;SDS011;47967;51.756;10.174;2022-08-19T16:06:32;1.77;;;1.40;;
62010;SDS011;47967;51.756;10.174;2022-08-19T16:10:37;2.20;;;1.42;;
62010;SDS011;47967;51.756;10.174;2022-08-19T16:14:41;1.65;;;1.42;;
62010;SDS011;47967;51.756;10.174;2022-08-19T16:18:43;2.85;;;1.40;;
62010;SDS011;47967;51.756;10.174;2022-08-19T16:22:47;5.47;;;1.63;;
62010;SDS011;47967;51.756;10.174;2022-08-19T16:26:51;3.28;;;1.63;;
62010;SDS011;47967;51.756;10.174;2022-08-19T16:30:54;4.15;;;1.70;;
62010;SDS011;47967;51.756;10.174;2022-08-19T16:34:57;2.95;;;1.70;;
62010;SDS011;47967;51.756;10.174;2022-08-19T16:39:06;5.50;;;1.60;;
62010;SDS011;47967;51.756;10.174;2022-08-19T16:43:11;6.95;;;1.70;;
62010;SDS011;47967;51.756;10.174;2022-08-19T16:47:14;3.22;;;1.50;;
62010;SDS011;47967;51.756;10.174;2022-08-19T16:51:18;2.60;;;1.42;;
62010;SDS011;47967;51.756;10.174;2022-08-19T16:55:22;1.60;;;1.50;;
62010;SDS011;47967;51.756;10.174;2022-08-19T16:59:29;4.47;;;1.60;;
62010;SDS011;47967;51.756;10.174;2022-08-19T17:03:33;1.95;;;1.40;;
62010;SDS011;47967;51.756;10.174;2022-08-19T17:07:37;3.15;;;1.33;;
62010;SDS011;47967;51.756;10.174;2022-08-19T17:11:40;2.00;;;1.30;;
62010;SDS011;47967;51.756;10.174;2022-08-19T17:19:46;1.40;;;1.27;;
62010;SDS011;47967;51.756;10.174;2022-08-19T17:27:51;7.25;;;1.70;;
62010;SDS011;47967;51.756;10.174;2022-08-19T17:31:56;2.90;;;1.60;;
62010;SDS011;47967;51.756;10.174;2022-08-19T17:35:59;2.45;;;1.48;;
62010;SDS011;47967;51.756;10.174;2022-08-19T17:40:06;3.53;;;1.30;;
62010;SDS011;47967;51.756;10.174;2022-08-19T17:44:09;2.17;;;1.42;;
62010;SDS011;47967;51.756;10.174;2022-08-19T17:48:13;1.30;;;1.20;;
62010;SDS011;47967;51.756;10.174;2022-08-19T17:52:16;2.45;;;1.52;;
62010;SDS011;47967;51.756;10.174;2022-08-19T17:56:19;2.83;;;1.45;;
62010;SDS011;47967;51.756;10.174;2022-08-19T18:00:23;6.28;;;1.70;;
62010;SDS011;47967;51.756;10.174;2022-08-19T18:04:30;3.10;;;1.52;;
62010;SDS011;47967;51.756;10.174;2022-08-19T18:08:32;3.25;;;1.50;;
62010;SDS011;47967;51.756;10.174;2022-08-19T18:12:38;5.57;;;1.80;;
62010;SDS011;47967;51.756;10.174;2022-08-19T18:20:44;6.07;;;1.70;;
62010;SDS011;47967;51.756;10.174;2022-08-19T18:24:47;3.90;;;2.15;;
62010;SDS011;47967;51.756;10.174;2022-08-19T18:28:50;5.15;;;1.90;;
62010;SDS011;47967;51.756;10.174;2022-08-19T18:32:53;2.22;;;1.70;;
62010;SDS011;47967;51.756;10.174;2022-08-19T18:36:57;3.75;;;1.50;;
62010;SDS011;47967;51.756;10.174;2022-08-19T18:41:00;4.88;;;1.60;;
62010;SDS011;47967;51.756;10.174;2022-08-19T18:45:21;4.07;;;1.65;;
62010;SDS011;47967;51.756;10.174;2022-08-19T18:49:44;8.48;;;1.67;;
62010;SDS011;47967;51.756;10.174;2022-08-19T18:53:48;8.43;;;1.85;;
62010;SDS011;47967;51.756;10.174;2022-08-19T18:57:51;7.80;;;1.90;;
62010;SDS011;47967;51.756;10.174;2022-08-19T19:01:55;7.28;;;1.73;;
62010;SDS011;47967;51.756;10.174;2022-08-19T19:05:59;5.00;;;1.67;;
62010;SDS011;47967;51.756;10.174;2022-08-19T19:10:06;2.20;;;1.30;;
62010;SDS011;47967;51.756;10.174;2022-08-19T19:14:10;3.35;;;1.33;;
62010;SDS011;47967;51.756;10.174;2022-08-19T19:18:34;2.42;;;1.70;;
62010;SDS011;47967;51.756;10.174;2022-08-19T19:22:37;3.25;;;1.80;;
62010;SDS011;47967;51.756;10.174;2022-08-19T19:26:42;6.35;;;1.92;;
62010;SDS011;47967;51.756;10.174;2022-08-19T19:30:46;6.20;;;2.05;;
62010;SDS011;47967;51.756;10.174;2022-08-19T19:34:49;12.85;;;2.15;;
62010;SDS011;47967;51.756;10.174;2022-08-19T19:38:51;6.13;;;1.60;;
62010;SDS011;47967;51.756;10.174;2022-08-19T19:42:55;5.72;;;1.77;;
62010;SDS011;47967;51.756;10.174;2022-08-19T19:47:00;10.65;;;1.90;;
62010;SDS011;47967;51.756;10.174;2022-08-19T19:51:02;4.60;;;1.90;;
62010;SDS011;47967;51.756;10.174;2022-08-19T19:55:06;2.85;;;1.80;;
62010;SDS011;47967;51.756;10.174;2022-08-19T19:59:13;4.07;;;1.60;;
62010;SDS011;47967;51.756;10.174;2022-08-19T20:03:15;4.00;;;1.85;;
